createdAt,value
2019-04-16T00:01:32.514Z,31.50
2019-04-16T00:04:07.659Z,25.50
2019-04-16T00:06:55.628Z,28.75
2019-04-16T00:09:38.600Z,26.75
2019-04-16T00:12:22.753Z,29.25
2019-04-16T00:17:20.635Z,31.75
2019-04-16T00:19:49.612Z,30.75
2019-04-16T00:22:27.669Z,30.25
2019-04-16T00:24:57.741Z,30.50
2019-04-16T00:27:28.715Z,30.50
2019-04-16T00:29:58.716Z,30.25
2019-04-16T00:32:31.105Z,26.25
2019-04-16T00:35:00.287Z,28.75
2019-04-16T00:37:29.311Z,28.25
2019-04-16T00:39:58.393Z,31.75
2019-04-16T00:42:27.442Z,28.00
2019-04-16T00:44:56.537Z,30.75
2019-04-16T00:47:25.656Z,30.50
2019-04-16T00:49:57.560Z,27.25
2019-04-16T00:52:25.560Z,28.25
2019-04-16T00:54:54.651Z,25.25
2019-04-16T00:57:23.751Z,34.75
2019-04-16T00:59:56.277Z,28.50
2019-04-16T01:02:23.704Z,30.50
2019-04-16T01:04:52.711Z,29.50
2019-04-16T01:07:21.720Z,26.00
2019-04-16T01:09:50.813Z,28.00
2019-04-16T01:12:19.867Z,28.50
2019-04-16T01:14:48.913Z,31.00
2019-04-16T01:17:17.888Z,30.25
2019-04-16T01:19:46.918Z,32.25
2019-04-16T01:22:16.712Z,29.75
2019-04-16T01:24:45.859Z,26.50
2019-04-16T01:27:15.515Z,25.50
2019-04-16T01:32:48.882Z,30.50
2019-04-16T01:35:51.033Z,29.25
2019-04-16T01:38:34.458Z,27.75
2019-04-16T01:41:09.380Z,32.75
2019-04-16T01:43:38.451Z,33.25
2019-04-16T01:46:07.496Z,32.00
2019-04-16T01:48:38.990Z,36.50
2019-04-16T01:51:07.471Z,27.75
2019-04-16T01:53:36.532Z,26.75
2019-04-16T01:56:05.689Z,31.00
2019-04-16T01:58:34.789Z,34.25
2019-04-16T02:01:03.948Z,32.75
2019-04-16T02:03:32.985Z,29.25
2019-04-16T02:06:01.990Z,32.25
2019-04-16T02:08:31.822Z,29.75
2019-04-16T02:11:01.520Z,34.00
2019-04-16T02:13:30.556Z,30.25
2019-04-16T02:15:59.781Z,26.75
2019-04-16T02:18:29.810Z,38.00
2019-04-16T02:20:59.327Z,32.25
2019-04-16T02:23:28.349Z,28.75
2019-04-16T02:25:57.415Z,29.75
2019-04-16T02:28:28.297Z,33.50
2019-04-16T02:31:00.603Z,36.25
2019-04-16T02:33:29.629Z,30.75
2019-04-16T02:35:58.896Z,25.75
2019-04-16T02:38:27.941Z,30.25
2019-04-16T02:40:57.083Z,32.25
2019-04-16T02:43:26.090Z,30.50
2019-04-16T02:45:58.321Z,25.00
2019-04-16T02:48:25.893Z,33.50
2019-04-16T02:51:06.918Z,30.75
2019-04-16T02:53:46.172Z,32.75
2019-04-16T02:56:42.459Z,34.00
2019-04-16T02:59:15.090Z,34.00
2019-04-16T03:02:02.097Z,31.25
2019-04-16T03:04:36.841Z,31.25
2019-04-16T03:07:05.872Z,34.75
2019-04-16T03:09:39.774Z,27.00
2019-04-16T03:12:09.119Z,31.00
2019-04-16T03:14:38.104Z,35.00
2019-04-16T03:17:32.264Z,27.00
2019-04-16T03:20:07.570Z,31.25
2019-04-16T03:22:36.633Z,29.25
2019-04-16T03:25:12.536Z,33.25
2019-04-16T03:27:37.985Z,29.75
2019-04-16T03:30:07.776Z,32.75
2019-04-16T03:32:48.890Z,29.50
2019-04-16T03:35:18.055Z,27.50
2019-04-16T03:37:47.366Z,30.50
2019-04-16T03:40:18.652Z,33.25
2019-04-16T03:42:47.487Z,30.25
2019-04-16T03:45:16.607Z,34.00
2019-04-16T03:47:48.202Z,36.50
2019-04-16T03:50:16.408Z,28.75
2019-04-16T03:52:45.926Z,31.25
2019-04-16T03:55:14.963Z,34.00
2019-04-16T03:57:43.974Z,35.75
2019-04-16T04:00:14.310Z,38.25
2019-04-16T04:02:43.354Z,32.50
2019-04-16T04:05:12.388Z,30.25
2019-04-16T04:07:44.167Z,34.75
2019-04-16T04:10:12.911Z,32.25
2019-04-16T04:12:42.662Z,32.50
2019-04-16T04:15:13.108Z,28.00
2019-04-16T04:17:42.627Z,35.75
2019-04-16T04:20:14.664Z,31.00
2019-04-16T04:22:42.763Z,30.00
2019-04-16T04:25:11.908Z,34.50
2019-04-16T04:27:43.628Z,33.50
2019-04-16T04:30:12.205Z,32.50
2019-04-16T04:32:41.256Z,31.50
2019-04-16T04:35:11.401Z,32.50
2019-04-16T04:37:40.423Z,30.50
2019-04-16T04:40:09.679Z,28.50
2019-04-16T04:42:38.713Z,34.00
2019-04-16T04:45:09.904Z,31.00
2019-04-16T04:47:38.968Z,25.50
2019-04-16T04:50:08.382Z,29.00
2019-04-16T04:52:37.332Z,39.50
2019-04-16T04:55:06.959Z,30.00
2019-04-16T04:57:36.056Z,34.50
2019-04-16T05:00:08.512Z,28.50
2019-04-16T05:02:36.958Z,37.00
2019-04-16T05:05:16.455Z,34.00
2019-04-16T05:07:46.664Z,35.50
2019-04-16T05:10:15.754Z,29.50
2019-04-16T05:12:44.748Z,29.50
2019-04-16T05:15:14.328Z,33.00
2019-04-16T05:17:43.315Z,38.00
2019-04-16T05:20:15.403Z,29.25
2019-04-16T05:22:43.225Z,31.25
2019-04-16T05:25:12.564Z,33.75
2019-04-16T05:27:41.699Z,27.25
2019-04-16T05:30:10.976Z,30.25
2019-04-16T05:32:40.080Z,27.75
2019-04-16T05:35:10.365Z,34.50
2019-04-16T05:37:39.863Z,30.00
2019-04-16T05:40:10.293Z,35.00
2019-04-16T05:42:39.355Z,32.00
2019-04-16T05:45:08.550Z,31.25
2019-04-16T05:47:37.606Z,26.50
2019-04-16T05:50:08.830Z,33.75
2019-04-16T05:52:37.940Z,34.25
2019-04-16T05:55:17.650Z,31.50
2019-04-16T05:57:47.791Z,30.50
2019-04-16T06:03:01.692Z,36.50
2019-04-16T06:05:30.808Z,34.25
2019-04-16T06:08:10.304Z,35.00
2019-04-16T06:10:39.657Z,29.25
2019-04-16T06:13:45.884Z,32.25
2019-04-16T06:16:31.134Z,28.25
2019-04-16T06:22:14.620Z,28.75
2019-04-16T06:25:09.375Z,35.00
2019-04-16T06:27:54.390Z,34.75
2019-04-16T06:30:48.640Z,34.75
2019-04-16T06:33:39.226Z,31.25
2019-04-16T06:36:26.959Z,27.50
2019-04-16T06:39:01.320Z,29.50
2019-04-16T06:41:58.327Z,31.25
2019-04-16T06:44:30.735Z,31.75
2019-04-16T06:47:17.061Z,29.75
2019-04-16T06:50:02.994Z,31.50
2019-04-16T06:53:09.109Z,31.25
2019-04-16T06:55:44.198Z,31.50
2019-04-16T06:58:18.825Z,27.25
2019-04-16T07:01:23.039Z,33.75
2019-04-16T07:04:06.731Z,34.50
2019-04-16T07:06:53.207Z,33.00
2019-04-16T07:09:41.002Z,38.50
2019-04-16T07:12:07.188Z,31.50
2019-04-16T07:14:36.318Z,25.50
2019-04-16T07:17:09.939Z,29.75
2019-04-16T07:19:39.466Z,25.00
2019-04-16T07:22:09.917Z,33.50
2019-04-16T07:24:39.148Z,30.25
2019-04-16T07:27:12.273Z,34.50
2019-04-16T07:29:53.941Z,32.25
2019-04-16T07:32:34.135Z,27.75
2019-04-16T07:35:31.825Z,34.50
2019-04-16T07:38:36.041Z,28.75
2019-04-16T07:41:12.712Z,30.00
2019-04-16T07:44:07.849Z,30.25
2019-04-16T07:46:52.303Z,35.25
2019-04-16T07:49:35.328Z,26.00
2019-04-16T07:52:25.795Z,33.75
2019-04-16T07:55:23.682Z,32.25
2019-04-16T07:57:53.807Z,30.00
2019-04-16T08:00:22.886Z,28.00
2019-04-16T08:02:53.825Z,30.75
2019-04-16T08:05:22.804Z,26.50
2019-04-16T08:07:52.944Z,32.50
2019-04-16T08:10:22.720Z,28.50
2019-04-16T08:13:03.265Z,31.50
2019-04-16T08:15:32.357Z,29.25
2019-04-16T08:18:01.350Z,29.75
2019-04-16T08:20:31.855Z,27.25
2019-04-16T08:23:03.463Z,29.00
2019-04-16T08:25:34.036Z,29.25
2019-04-16T08:28:06.559Z,27.75
2019-04-16T08:30:39.135Z,29.75
2019-04-16T08:33:06.115Z,37.50
2019-04-16T08:35:35.200Z,33.25
2019-04-16T08:38:04.298Z,34.00
2019-04-16T08:40:33.765Z,36.00
2019-04-16T08:43:02.777Z,33.25
2019-04-16T08:45:31.833Z,31.00
2019-04-16T08:48:00.811Z,32.50
2019-04-16T08:50:29.821Z,31.00
2019-04-16T08:53:00.572Z,32.75
2019-04-16T08:55:29.589Z,36.75
2019-04-16T08:57:58.586Z,31.50
2019-04-16T09:00:27.757Z,32.75
2019-04-16T09:02:59.206Z,30.25
2019-04-16T09:05:28.524Z,36.75
2019-04-16T09:08:12.660Z,30.75
2019-04-16T09:10:33.995Z,30.00
2019-04-16T09:13:05.564Z,36.50
2019-04-16T09:15:35.815Z,33.25
2019-04-16T09:18:16.224Z,31.75
2019-04-16T09:20:45.398Z,28.50
2019-04-16T09:23:14.401Z,35.75
2019-04-16T09:26:13.038Z,36.25
2019-04-16T09:28:53.662Z,38.75
2019-04-16T09:31:37.909Z,30.25
2019-04-16T09:34:28.680Z,32.00
2019-04-16T09:37:16.703Z,31.75
2019-04-16T09:40:18.540Z,34.00
2019-04-16T09:42:47.943Z,32.50
2019-04-16T09:45:18.683Z,31.25
2019-04-16T09:47:47.674Z,35.25
2019-04-16T09:50:16.939Z,34.50
2019-04-16T09:52:46.012Z,38.25
2019-04-16T09:55:19.159Z,34.25
2019-04-16T09:57:46.461Z,31.00
2019-04-16T10:00:20.471Z,33.50
2019-04-16T10:02:49.970Z,29.75
2019-04-16T10:05:19.124Z,32.00
2019-04-16T10:07:48.155Z,34.00
2019-04-16T10:10:17.268Z,41.00
2019-04-16T10:12:46.359Z,31.25
2019-04-16T10:15:17.537Z,34.50
2019-04-16T10:17:46.780Z,32.50
2019-04-16T10:20:15.959Z,34.00
2019-04-16T10:22:44.956Z,37.00
2019-04-16T10:25:15.325Z,37.25
2019-04-16T10:27:47.105Z,33.75
2019-04-16T10:30:32.716Z,40.75
2019-04-16T10:33:01.709Z,38.50
2019-04-16T10:35:30.810Z,35.00
2019-04-16T10:38:04.941Z,36.75
2019-04-16T10:40:45.990Z,37.75
2019-04-16T10:43:44.445Z,37.00
2019-04-16T10:46:14.283Z,36.25
2019-04-16T10:48:58.592Z,35.75
2019-04-16T10:51:32.042Z,36.75
2019-04-16T10:54:12.848Z,36.00
2019-04-16T10:56:59.847Z,37.75
2019-04-16T10:59:46.706Z,40.50
2019-04-16T11:02:33.416Z,34.00
2019-04-16T11:05:09.473Z,34.00
2019-04-16T11:07:38.986Z,37.25
2019-04-16T11:10:11.676Z,34.75
2019-04-16T11:12:39.481Z,33.00
2019-04-16T11:15:08.957Z,37.00
2019-04-16T11:17:38.064Z,38.50
2019-04-16T11:20:07.258Z,35.00
2019-04-16T11:22:36.251Z,36.50
2019-04-16T11:25:05.804Z,36.25
2019-04-16T11:27:34.891Z,40.75
2019-04-16T11:30:05.087Z,37.25
2019-04-16T11:32:39.216Z,35.50
2019-04-16T11:35:05.114Z,38.50
2019-04-16T11:37:36.241Z,40.25
2019-04-16T11:40:05.534Z,41.50
2019-04-16T11:42:34.608Z,38.00
2019-04-16T11:45:03.883Z,40.00
2019-04-16T11:47:34.129Z,36.25
2019-04-16T11:50:03.971Z,35.75
2019-04-16T11:52:34.702Z,40.00
2019-04-16T11:55:04.012Z,32.50
2019-04-16T11:57:33.987Z,35.50
2019-04-16T12:02:42.809Z,36.50
2019-04-16T12:05:26.416Z,35.75
2019-04-16T12:08:18.242Z,39.25
2019-04-16T12:11:12.303Z,40.00
2019-04-16T12:14:04.140Z,39.00
2019-04-16T12:16:50.304Z,37.00
2019-04-16T12:19:37.177Z,38.75
2019-04-16T12:22:25.222Z,36.00
2019-04-16T12:25:12.146Z,39.25
2019-04-16T12:27:54.161Z,37.75
2019-04-16T12:30:32.262Z,38.50
2019-04-16T12:33:20.385Z,41.00
2019-04-16T12:36:14.748Z,39.00
2019-04-16T12:38:58.451Z,36.25
2019-04-16T12:41:47.897Z,39.00
2019-04-16T12:44:45.552Z,37.25
2019-04-16T12:47:37.918Z,38.75
2019-04-16T12:50:16.968Z,38.25
2019-04-16T12:53:02.319Z,36.00
2019-04-16T12:55:38.319Z,39.25
2019-04-16T12:58:11.778Z,39.50
2019-04-16T13:00:54.255Z,38.25
2019-04-16T13:03:46.433Z,39.75
2019-04-16T13:06:26.171Z,34.50
2019-04-16T13:09:29.645Z,32.75
2019-04-16T13:12:12.764Z,38.50
2019-04-16T13:15:01.551Z,35.00
2019-04-16T13:17:50.808Z,38.25
2019-04-16T13:23:33.150Z,40.00
2019-04-16T13:26:11.839Z,38.50
2019-04-16T13:28:39.295Z,40.50
2019-04-16T13:31:08.353Z,34.25
2019-04-16T13:33:37.471Z,37.75
2019-04-16T13:36:06.618Z,39.00
2019-04-16T13:38:40.394Z,39.75
2019-04-16T13:41:08.645Z,35.25
2019-04-16T13:43:42.134Z,41.25
2019-04-16T13:46:11.122Z,42.25
2019-04-16T13:49:01.857Z,39.00
2019-04-16T13:51:31.496Z,39.75
2019-04-16T13:54:09.060Z,36.50
2019-04-16T13:56:43.395Z,39.50
2019-04-16T13:59:34.388Z,40.50
2019-04-16T14:02:17.914Z,41.00
2019-04-16T14:07:13.669Z,43.00
2019-04-16T14:09:44.343Z,42.00
2019-04-16T14:12:13.691Z,42.50
2019-04-16T14:14:42.724Z,39.50
2019-04-16T14:17:17.719Z,42.00
2019-04-16T14:19:44.209Z,39.75
2019-04-16T14:22:13.290Z,43.00
2019-04-16T14:24:42.380Z,42.25
2019-04-16T14:27:13.965Z,40.00
2019-04-16T14:29:42.220Z,38.25
2019-04-16T14:32:11.324Z,40.50
2019-04-16T14:34:49.375Z,40.75
2019-04-16T14:39:52.226Z,43.00
2019-04-16T14:42:22.245Z,40.75
2019-04-16T14:44:56.064Z,40.75
2019-04-16T14:47:25.144Z,42.00
2019-04-16T14:49:54.181Z,44.00
2019-04-16T14:52:23.246Z,43.00
2019-04-16T14:55:01.165Z,43.25
2019-04-16T14:57:30.246Z,43.25
2019-04-16T15:00:09.718Z,45.25
2019-04-16T15:02:52.561Z,45.00
2019-04-16T15:05:50.124Z,41.75
2019-04-16T15:08:38.076Z,42.75
2019-04-16T15:11:38.649Z,42.75
2019-04-16T15:14:14.699Z,42.50
2019-04-16T15:16:50.933Z,47.25
2019-04-16T15:19:43.109Z,45.00
2019-04-16T15:22:34.237Z,41.75
2019-04-16T15:25:13.135Z,41.75
2019-04-16T15:27:55.971Z,45.00
2019-04-16T15:30:37.346Z,44.00
2019-04-16T15:33:24.178Z,44.25
2019-04-16T15:35:56.678Z,44.00
2019-04-16T15:38:50.910Z,44.25
2019-04-16T15:41:29.653Z,44.50
2019-04-16T15:44:07.874Z,41.75
2019-04-16T15:46:54.833Z,44.00
2019-04-16T15:49:42.848Z,44.00
2019-04-16T15:52:27.601Z,42.00
2019-04-16T15:55:33.992Z,41.25
2019-04-16T15:58:24.972Z,44.25
2019-04-16T16:01:03.425Z,44.00
2019-04-16T16:03:50.044Z,45.25
2019-04-16T16:06:22.834Z,44.25
2019-04-16T16:09:10.002Z,46.25
2019-04-16T16:11:48.074Z,43.00
2019-04-16T16:14:16.529Z,44.50
2019-04-16T16:16:47.800Z,45.50
2019-04-16T16:19:16.231Z,51.25
2019-04-16T16:21:45.262Z,47.25
2019-04-16T16:24:14.264Z,45.75
2019-04-16T16:26:43.319Z,43.50
2019-04-16T16:29:12.691Z,42.50
2019-04-16T16:31:41.740Z,46.00
2019-04-16T16:34:10.871Z,46.00
2019-04-16T16:36:43.830Z,42.75
2019-04-16T16:39:12.919Z,42.00
2019-04-16T16:41:41.956Z,46.25
2019-04-16T16:44:11.734Z,45.50
2019-04-16T16:46:57.240Z,45.50
2019-04-16T16:49:22.752Z,45.75
2019-04-16T16:52:09.482Z,40.50
2019-04-16T16:54:39.021Z,45.75
2019-04-16T16:57:13.901Z,42.75
2019-04-16T16:59:50.415Z,43.25
2019-04-16T17:04:58.035Z,43.00
2019-04-16T17:07:27.055Z,46.25
2019-04-16T17:09:57.620Z,45.25
2019-04-16T17:12:26.787Z,47.00
2019-04-16T17:14:55.903Z,45.00
2019-04-16T17:17:24.902Z,45.50
2019-04-16T17:19:53.984Z,44.00
2019-04-16T17:22:23.021Z,45.25
2019-04-16T17:24:52.015Z,46.50
2019-04-16T17:27:21.011Z,48.25
2019-04-16T17:29:50.899Z,47.00
2019-04-16T17:32:20.202Z,47.50
2019-04-16T17:34:49.193Z,41.75
2019-04-16T17:37:21.360Z,42.50
2019-04-16T17:39:52.473Z,48.75
2019-04-16T17:42:26.420Z,43.75
2019-04-16T17:45:31.356Z,44.75
2019-04-16T17:48:12.516Z,43.75
2019-04-16T17:50:52.887Z,44.00
2019-04-16T17:53:50.243Z,43.00
2019-04-16T17:56:38.289Z,46.00
2019-04-16T18:05:23.388Z,43.00
2019-04-16T18:08:25.446Z,42.75
2019-04-16T18:11:15.068Z,45.50
2019-04-16T18:13:57.375Z,42.75
2019-04-16T18:16:50.085Z,45.00
2019-04-16T18:19:47.271Z,44.50
2019-04-16T18:22:25.250Z,43.50
2019-04-16T18:25:13.191Z,44.25
2019-04-16T18:27:50.102Z,48.00
2019-04-16T18:30:38.131Z,42.50
2019-04-16T18:33:29.902Z,48.00
2019-04-16T18:36:21.395Z,46.75
2019-04-16T18:39:09.367Z,44.75
2019-04-16T18:41:57.502Z,41.50
2019-04-16T18:44:44.339Z,42.50
2019-04-16T18:47:44.697Z,42.25
2019-04-16T18:50:22.205Z,45.25
2019-04-16T18:52:48.430Z,43.50
2019-04-16T18:55:17.466Z,43.50
2019-04-16T18:57:46.452Z,43.50
2019-04-16T19:00:35.402Z,40.75
2019-04-16T19:05:42.663Z,45.75
2019-04-16T19:08:11.991Z,45.75
2019-04-16T19:10:41.120Z,41.75
2019-04-16T19:13:11.757Z,45.75
2019-04-16T19:15:40.783Z,40.75
2019-04-16T19:18:18.906Z,39.50
2019-04-16T19:20:40.712Z,48.25
2019-04-16T19:23:11.144Z,44.75
2019-04-16T19:28:15.056Z,45.00
2019-04-16T19:30:44.156Z,42.25
2019-04-16T19:33:13.159Z,44.50
2019-04-16T19:35:42.134Z,41.75
2019-04-16T19:38:11.151Z,45.50
2019-04-16T19:40:40.205Z,43.50
2019-04-16T19:43:10.223Z,46.00
2019-04-16T19:45:40.605Z,45.00
2019-04-16T19:48:10.126Z,45.50
2019-04-16T19:50:39.143Z,46.75
2019-04-16T19:53:13.784Z,44.75
2019-04-16T19:55:38.997Z,52.25
2019-04-16T19:58:08.146Z,44.50
2019-04-16T20:00:37.368Z,47.00
2019-04-16T20:03:08.424Z,43.75
2019-04-16T20:05:37.392Z,36.00
2019-04-16T20:08:06.843Z,38.25
2019-04-16T20:10:35.960Z,37.00
2019-04-16T20:13:05.205Z,35.50
2019-04-16T20:15:34.389Z,34.00
2019-04-16T20:18:06.577Z,33.25
2019-04-16T20:20:34.198Z,34.25
2019-04-16T20:23:03.201Z,35.00
2019-04-16T20:25:32.197Z,33.50
2019-04-16T20:28:01.450Z,31.75
2019-04-16T20:30:30.523Z,32.50
2019-04-16T20:32:59.559Z,34.50
2019-04-16T20:35:31.318Z,33.25
2019-04-16T20:38:00.408Z,32.00
2019-04-16T20:40:29.407Z,36.25
2019-04-16T20:42:59.591Z,30.50
2019-04-16T20:45:28.574Z,32.25
2019-04-16T20:47:57.628Z,31.25
2019-04-16T20:50:26.726Z,28.25
2019-04-16T20:52:55.783Z,30.75
2019-04-16T20:55:24.879Z,32.25
2019-04-16T20:57:55.387Z,31.75
2019-04-16T21:00:28.683Z,29.75
2019-04-16T21:03:02.247Z,31.00
2019-04-16T21:05:35.514Z,26.00
2019-04-16T21:08:00.572Z,34.50
2019-04-16T21:10:29.642Z,28.75
2019-04-16T21:12:58.614Z,29.25
2019-04-16T21:15:28.362Z,32.25
2019-04-16T21:17:57.408Z,36.50
2019-04-16T21:20:26.457Z,39.00
2019-04-16T21:22:57.409Z,36.00
2019-04-16T21:25:26.146Z,33.25
2019-04-16T21:28:02.056Z,30.25
2019-04-16T21:30:31.068Z,29.25
2019-04-16T21:35:51.457Z,29.75
2019-04-16T21:38:35.600Z,29.25
2019-04-16T21:41:04.739Z,38.00
2019-04-16T21:43:35.774Z,34.75
2019-04-16T21:46:04.441Z,32.00
2019-04-16T21:48:34.735Z,31.75
2019-04-16T21:51:03.730Z,35.75
2019-04-16T21:53:32.823Z,33.75
2019-04-16T21:56:06.351Z,29.75
2019-04-16T21:58:32.631Z,33.25
2019-04-16T22:01:17.993Z,32.50
2019-04-16T22:03:50.967Z,35.25
2019-04-16T22:06:20.987Z,31.50
2019-04-16T22:08:50.100Z,30.25
2019-04-16T22:11:19.096Z,35.50
2019-04-16T22:13:50.684Z,33.25
2019-04-16T22:16:18.824Z,34.00
2019-04-16T22:18:47.935Z,32.25
2019-04-16T22:21:16.980Z,35.50
2019-04-16T22:23:50.143Z,35.75
2019-04-16T22:26:16.720Z,30.25
2019-04-16T22:28:45.757Z,35.00
2019-04-16T22:31:14.738Z,31.50
2019-04-16T22:33:43.736Z,32.25
2019-04-16T22:36:12.848Z,29.25
2019-04-16T22:38:44.236Z,37.25
2019-04-16T22:44:14.518Z,28.50
2019-04-16T22:46:52.915Z,31.00
2019-04-16T22:49:22.479Z,33.75
2019-04-16T22:51:52.321Z,30.50
2019-04-16T22:54:21.650Z,33.00
2019-04-16T22:57:01.427Z,29.25
2019-04-16T22:59:31.187Z,31.75
2019-04-16T23:02:00.464Z,32.75
2019-04-16T23:04:29.722Z,31.00
2019-04-16T23:06:58.774Z,32.00
2019-04-16T23:09:29.661Z,30.25
2019-04-16T23:11:58.658Z,26.75
2019-04-16T23:14:27.695Z,29.25
2019-04-16T23:16:57.018Z,31.75
2019-04-16T23:19:26.031Z,27.25
2019-04-16T23:21:55.029Z,30.00
2019-04-16T23:24:24.237Z,32.75
2019-04-16T23:26:53.290Z,32.00
2019-04-16T23:29:22.348Z,26.00
2019-04-16T23:31:55.052Z,29.25
2019-04-16T23:34:22.078Z,30.50
2019-04-16T23:36:51.058Z,27.75
2019-04-16T23:39:20.090Z,28.25
2019-04-16T23:41:49.145Z,28.25
2019-04-16T23:44:34.974Z,26.00
2019-04-16T23:47:19.306Z,30.25
2019-04-16T23:49:54.399Z,29.00
2019-04-16T23:52:28.048Z,33.50
2019-04-16T23:55:02.768Z,29.00
2019-04-16T23:57:40.530Z,30.50
